Terminal Aerodrome Forecast
Issued by NWS

Home | Current Version | Previous Version | Text Only | Print | Product List | Glossary On
Versions: 1 2 3 4 5 6 7 8 9 10 11 12 13 14 15 16 17 18 19 20 21 22
000
FTUS46 KSGX 211100
TAFONT
TAF
KONT 211120Z 2112/2218 VRB03KT 4SM BR SCT010
      TEMPO 2113/2115 1SM BR BKN009
     FM211700 VRB05KT 6SM HZ SKC
     FM212000 25008KT P6SM SKC
     FM220300 VRB04KT P6SM SKC=

USA.gov is the U.S. government's official web portal to all federal, state and local government web resources and services.